sensor_id;sensor_type;location;lat;lon;timestamp;temperature;humidity
42147;DHT22;27815;43.410;11.852;2023-07-16T00:02:04;26.00;63.00
42147;DHT22;27815;43.410;11.852;2023-07-16T00:06:10;26.00;63.00
42147;DHT22;27815;43.410;11.852;2023-07-16T00:10:13;26.00;63.10
42147;DHT22;27815;43.410;11.852;2023-07-16T00:14:18;26.00;63.30
42147;DHT22;27815;43.410;11.852;2023-07-16T00:18:22;25.90;63.50
42147;DHT22;27815;43.410;11.852;2023-07-16T00:22:25;25.80;63.70
42147;DHT22;27815;43.410;11.852;2023-07-16T00:26:29;25.80;63.80
42147;DHT22;27815;43.410;11.852;2023-07-16T00:30:35;25.70;63.90
42147;DHT22;27815;43.410;11.852;2023-07-16T00:34:40;25.70;63.90
42147;DHT22;27815;43.410;11.852;2023-07-16T00:38:44;25.80;63.90
42147;DHT22;27815;43.410;11.852;2023-07-16T00:42:53;25.70;64.10
42147;DHT22;27815;43.410;11.852;2023-07-16T00:46:56;25.70;64.10
42147;DHT22;27815;43.410;11.852;2023-07-16T00:51:02;25.70;64.30
42147;DHT22;27815;43.410;11.852;2023-07-16T00:55:09;25.60;64.50
42147;DHT22;27815;43.410;11.852;2023-07-16T00:59:15;25.60;64.60
42147;DHT22;27815;43.410;11.852;2023-07-16T01:03:19;25.50;64.90
42147;DHT22;27815;43.410;11.852;2023-07-16T01:07:28;25.30;65.30
42147;DHT22;27815;43.410;11.852;2023-07-16T01:11:35;25.20;65.50
42147;DHT22;27815;43.410;11.852;2023-07-16T01:15:44;25.20;65.50
42147;DHT22;27815;43.410;11.852;2023-07-16T01:19:49;25.20;65.50
42147;DHT22;27815;43.410;11.852;2023-07-16T01:32:23;25.00;65.90
42147;DHT22;27815;43.410;11.852;2023-07-16T01:36:33;24.90;65.90
42147;DHT22;27815;43.410;11.852;2023-07-16T01:40:39;24.70;66.10
42147;DHT22;27815;43.410;11.852;2023-07-16T01:44:47;24.60;66.30
42147;DHT22;27815;43.410;11.852;2023-07-16T01:48:51;24.50;66.50
42147;DHT22;27815;43.410;11.852;2023-07-16T01:52:58;24.50;66.70
42147;DHT22;27815;43.410;11.852;2023-07-16T01:57:03;24.40;67.00
42147;DHT22;27815;43.410;11.852;2023-07-16T02:01:08;24.30;67.20
42147;DHT22;27815;43.410;11.852;2023-07-16T02:05:12;24.30;67.40
42147;DHT22;27815;43.410;11.852;2023-07-16T02:09:17;24.20;67.60
42147;DHT22;27815;43.410;11.852;2023-07-16T02:13:23;24.30;67.60
42147;DHT22;27815;43.410;11.852;2023-07-16T02:17:28;24.20;67.60
42147;DHT22;27815;43.410;11.852;2023-07-16T02:21:35;24.20;67.70
42147;DHT22;27815;43.410;11.852;2023-07-16T02:25:38;24.10;67.90
42147;DHT22;27815;43.410;11.852;2023-07-16T02:29:41;24.10;68.30
42147;DHT22;27815;43.410;11.852;2023-07-16T02:33:46;24.10;68.40
42147;DHT22;27815;43.410;11.852;2023-07-16T02:37:49;24.00;68.50
42147;DHT22;27815;43.410;11.852;2023-07-16T02:41:54;23.80;68.90
42147;DHT22;27815;43.410;11.852;2023-07-16T02:45:59;23.80;68.90
42147;DHT22;27815;43.410;11.852;2023-07-16T02:50:04;23.80;68.70
42147;DHT22;27815;43.410;11.852;2023-07-16T02:54:09;23.70;68.70
42147;DHT22;27815;43.410;11.852;2023-07-16T02:58:14;23.70;68.70
42147;DHT22;27815;43.410;11.852;2023-07-16T03:02:20;23.70;68.70
42147;DHT22;27815;43.410;11.852;2023-07-16T03:06:24;23.60;68.70
42147;DHT22;27815;43.410;11.852;2023-07-16T03:10:29;23.50;68.70
42147;DHT22;27815;43.410;11.852;2023-07-16T03:14:36;23.50;68.90
42147;DHT22;27815;43.410;11.852;2023-07-16T03:18:41;23.40;69.00
42147;DHT22;27815;43.410;11.852;2023-07-16T03:22:45;23.30;69.10
42147;DHT22;27815;43.410;11.852;2023-07-16T03:26:49;23.30;69.10
42147;DHT22;27815;43.410;11.852;2023-07-16T03:31:02;23.20;69.10
42147;DHT22;27815;43.410;11.852;2023-07-16T03:35:09;23.10;69.30
42147;DHT22;27815;43.410;11.852;2023-07-16T03:39:14;23.00;69.40
42147;DHT22;27815;43.410;11.852;2023-07-16T03:43:17;23.00;69.60
42147;DHT22;27815;43.410;11.852;2023-07-16T03:47:28;22.90;69.60
42147;DHT22;27815;43.410;11.852;2023-07-16T03:51:31;22.90;69.80
42147;DHT22;27815;43.410;11.852;2023-07-16T03:55:34;22.80;69.90
42147;DHT22;27815;43.410;11.852;2023-07-16T03:59:38;22.80;69.90
42147;DHT22;27815;43.410;11.852;2023-07-16T04:03:41;22.80;69.90
42147;DHT22;27815;43.410;11.852;2023-07-16T04:07:44;22.70;70.00
42147;DHT22;27815;43.410;11.852;2023-07-16T04:11:47;22.70;70.10
42147;DHT22;27815;43.410;11.852;2023-07-16T04:15:50;22.70;70.00
42147;DHT22;27815;43.410;11.852;2023-07-16T04:19:55;22.70;70.20
42147;DHT22;27815;43.410;11.852;2023-07-16T04:23:58;22.70;70.30
42147;DHT22;27815;43.410;11.852;2023-07-16T04:28:01;22.70;70.30
42147;DHT22;27815;43.410;11.852;2023-07-16T04:32:06;22.80;70.40
42147;DHT22;27815;43.410;11.852;2023-07-16T04:36:09;22.80;70.40
42147;DHT22;27815;43.410;11.852;2023-07-16T04:40:12;22.90;70.30
42147;DHT22;27815;43.410;11.852;2023-07-16T04:44:15;23.00;70.10
42147;DHT22;27815;43.410;11.852;2023-07-16T04:48:18;23.10;69.90
42147;DHT22;27815;43.410;11.852;2023-07-16T04:52:21;23.20;69.90
42147;DHT22;27815;43.410;11.852;2023-07-16T04:56:24;23.30;69.80
42147;DHT22;27815;43.410;11.852;2023-07-16T05:00:27;23.30;69.80
42147;DHT22;27815;43.410;11.852;2023-07-16T05:04:31;23.40;69.70
42147;DHT22;27815;43.410;11.852;2023-07-16T05:08:34;23.40;69.90
42147;DHT22;27815;43.410;11.852;2023-07-16T05:12:40;23.30;69.80
42147;DHT22;27815;43.410;11.852;2023-07-16T05:16:43;23.40;69.70
42147;DHT22;27815;43.410;11.852;2023-07-16T05:20:49;23.50;69.60
42147;DHT22;27815;43.410;11.852;2023-07-16T05:24:52;23.50;69.50
42147;DHT22;27815;43.410;11.852;2023-07-16T05:28:55;23.60;69.40
42147;DHT22;27815;43.410;11.852;2023-07-16T05:32:57;23.70;69.30
42147;DHT22;27815;43.410;11.852;2023-07-16T05:37:02;23.80;69.10
42147;DHT22;27815;43.410;11.852;2023-07-16T05:41:05;24.00;68.90
42147;DHT22;27815;43.410;11.852;2023-07-16T05:45:08;24.10;68.60
42147;DHT22;27815;43.410;11.852;2023-07-16T05:49:11;24.30;68.40
42147;DHT22;27815;43.410;11.852;2023-07-16T05:53:20;24.50;68.40
42147;DHT22;27815;43.410;11.852;2023-07-16T05:57:23;24.50;68.70
42147;DHT22;27815;43.410;11.852;2023-07-16T06:01:35;24.60;68.70
42147;DHT22;27815;43.410;11.852;2023-07-16T06:05:38;24.80;69.00
42147;DHT22;27815;43.410;11.852;2023-07-16T06:09:51;24.90;68.80
42147;DHT22;27815;43.410;11.852;2023-07-16T06:13:54;25.20;68.60
42147;DHT22;27815;43.410;11.852;2023-07-16T06:17:57;25.30;68.40
42147;DHT22;27815;43.410;11.852;2023-07-16T06:22:00;25.50;68.30
42147;DHT22;27815;43.410;11.852;2023-07-16T06:26:03;25.70;68.30
42147;DHT22;27815;43.410;11.852;2023-07-16T06:30:06;26.00;67.90
42147;DHT22;27815;43.410;11.852;2023-07-16T06:34:09;26.20;67.90
42147;DHT22;27815;43.410;11.852;2023-07-16T06:38:13;26.40;67.50
42147;DHT22;27815;43.410;11.852;2023-07-16T06:42:15;26.70;67.20
42147;DHT22;27815;43.410;11.852;2023-07-16T06:46:18;26.90;66.90
42147;DHT22;27815;43.410;11.852;2023-07-16T06:50:22;27.10;66.70
42147;DHT22;27815;43.410;11.852;2023-07-16T06:54:24;27.40;66.30
42147;DHT22;27815;43.410;11.852;2023-07-16T06:58:31;27.70;65.90
42147;DHT22;27815;43.410;11.852;2023-07-16T07:02:36;27.80;65.50
42147;DHT22;27815;43.410;11.852;2023-07-16T07:06:40;28.00;65.40
42147;DHT22;27815;43.410;11.852;2023-07-16T07:10:44;28.20;64.90
42147;DHT22;27815;43.410;11.852;2023-07-16T07:14:49;28.40;64.50
42147;DHT22;27815;43.410;11.852;2023-07-16T07:18:52;28.40;64.30
42147;DHT22;27815;43.410;11.852;2023-07-16T07:22:57;28.70;63.90
42147;DHT22;27815;43.410;11.852;2023-07-16T07:27:05;29.00;63.20
42147;DHT22;27815;43.410;11.852;2023-07-16T07:31:08;29.30;62.60
42147;DHT22;27815;43.410;11.852;2023-07-16T07:35:12;29.50;61.90
42147;DHT22;27815;43.410;11.852;2023-07-16T07:39:17;29.80;61.30
42147;DHT22;27815;43.410;11.852;2023-07-16T07:43:25;30.00;60.80
42147;DHT22;27815;43.410;11.852;2023-07-16T07:47:29;30.00;60.60
42147;DHT22;27815;43.410;11.852;2023-07-16T07:51:33;30.20;59.70
42147;DHT22;27815;43.410;11.852;2023-07-16T07:55:38;30.50;58.90
42147;DHT22;27815;43.410;11.852;2023-07-16T07:59:40;30.60;58.30
42147;DHT22;27815;43.410;11.852;2023-07-16T08:03:43;30.80;57.50
42147;DHT22;27815;43.410;11.852;2023-07-16T08:07:46;30.80;57.40
42147;DHT22;27815;43.410;11.852;2023-07-16T08:11:50;31.00;57.20
42147;DHT22;27815;43.410;11.852;2023-07-16T08:15:52;31.10;56.50
42147;DHT22;27815;43.410;11.852;2023-07-16T08:19:55;31.20;56.20
42147;DHT22;27815;43.410;11.852;2023-07-16T08:23:59;31.30;55.70
42147;DHT22;27815;43.410;11.852;2023-07-16T08:28:14;31.50;55.20
42147;DHT22;27815;43.410;11.852;2023-07-16T08:32:19;31.50;55.20
42147;DHT22;27815;43.410;11.852;2023-07-16T08:36:22;31.80;54.60
42147;DHT22;27815;43.410;11.852;2023-07-16T08:40:25;31.80;54.40
42147;DHT22;27815;43.410;11.852;2023-07-16T08:44:30;31.90;53.70
42147;DHT22;27815;43.410;11.852;2023-07-16T08:48:33;32.00;53.30
42147;DHT22;27815;43.410;11.852;2023-07-16T08:52:37;32.10;52.70
42147;DHT22;27815;43.410;11.852;2023-07-16T08:56:40;32.40;50.80
42147;DHT22;27815;43.410;11.852;2023-07-16T09:00:44;32.60;48.20
42147;DHT22;27815;43.410;11.852;2023-07-16T09:04:47;32.80;46.70
42147;DHT22;27815;43.410;11.852;2023-07-16T09:08:50;32.90;46.20
42147;DHT22;27815;43.410;11.852;2023-07-16T09:12:53;33.00;45.30
42147;DHT22;27815;43.410;11.852;2023-07-16T09:16:57;33.30;44.40
42147;DHT22;27815;43.410;11.852;2023-07-16T09:21:00;33.50;43.30
42147;DHT22;27815;43.410;11.852;2023-07-16T09:25:05;33.60;42.60
42147;DHT22;27815;43.410;11.852;2023-07-16T09:29:08;33.70;41.30
42147;DHT22;27815;43.410;11.852;2023-07-16T09:33:14;33.70;40.10
42147;DHT22;27815;43.410;11.852;2023-07-16T09:37:18;33.80;39.30
42147;DHT22;27815;43.410;11.852;2023-07-16T09:41:22;33.90;39.50
42147;DHT22;27815;43.410;11.852;2023-07-16T09:45:25;34.00;39.60
42147;DHT22;27815;43.410;11.852;2023-07-16T09:49:28;34.10;39.00
42147;DHT22;27815;43.410;11.852;2023-07-16T09:53:33;34.20;38.50
42147;DHT22;27815;43.410;11.852;2023-07-16T09:57:41;34.20;38.40
42147;DHT22;27815;43.410;11.852;2023-07-16T10:01:45;34.30;37.80
42147;DHT22;27815;43.410;11.852;2023-07-16T10:05:48;34.40;37.60
42147;DHT22;27815;43.410;11.852;2023-07-16T10:09:53;34.40;37.20
42147;DHT22;27815;43.410;11.852;2023-07-16T10:13:58;34.40;37.70
42147;DHT22;27815;43.410;11.852;2023-07-16T10:18:01;34.50;37.40
42147;DHT22;27815;43.410;11.852;2023-07-16T10:22:04;34.60;36.70
42147;DHT22;27815;43.410;11.852;2023-07-16T10:26:08;34.80;36.50
42147;DHT22;27815;43.410;11.852;2023-07-16T10:30:19;34.80;36.10
42147;DHT22;27815;43.410;11.852;2023-07-16T10:34:23;34.90;36.00
42147;DHT22;27815;43.410;11.852;2023-07-16T10:38:26;35.00;35.80
42147;DHT22;27815;43.410;11.852;2023-07-16T10:42:29;35.10;35.70
42147;DHT22;27815;43.410;11.852;2023-07-16T10:46:33;35.10;35.40
42147;DHT22;27815;43.410;11.852;2023-07-16T10:50:36;35.20;35.60
42147;DHT22;27815;43.410;11.852;2023-07-16T10:54:40;35.40;35.10
42147;DHT22;27815;43.410;11.852;2023-07-16T10:58:43;35.40;35.20
42147;DHT22;27815;43.410;11.852;2023-07-16T11:02:46;35.50;35.40
42147;DHT22;27815;43.410;11.852;2023-07-16T11:06:50;35.60;35.20
42147;DHT22;27815;43.410;11.852;2023-07-16T11:10:56;35.70;35.20
42147;DHT22;27815;43.410;11.852;2023-07-16T11:15:00;35.80;35.50
42147;DHT22;27815;43.410;11.852;2023-07-16T11:19:07;35.80;35.50
42147;DHT22;27815;43.410;11.852;2023-07-16T11:23:11;35.80;34.90
42147;DHT22;27815;43.410;11.852;2023-07-16T11:27:19;35.80;35.50
42147;DHT22;27815;43.410;11.852;2023-07-16T11:31:23;35.90;35.00
42147;DHT22;27815;43.410;11.852;2023-07-16T11:35:26;35.90;35.10
42147;DHT22;27815;43.410;11.852;2023-07-16T11:39:29;36.10;34.80
42147;DHT22;27815;43.410;11.852;2023-07-16T11:43:36;36.10;34.80
42147;DHT22;27815;43.410;11.852;2023-07-16T11:47:40;36.00;34.80
42147;DHT22;27815;43.410;11.852;2023-07-16T11:51:46;36.00;34.50
42147;DHT22;27815;43.410;11.852;2023-07-16T11:55:49;36.20;34.20
42147;DHT22;27815;43.410;11.852;2023-07-16T11:59:52;36.30;34.30
42147;DHT22;27815;43.410;11.852;2023-07-16T12:03:55;36.50;34.10
42147;DHT22;27815;43.410;11.852;2023-07-16T12:07:59;36.50;33.70
42147;DHT22;27815;43.410;11.852;2023-07-16T12:12:02;36.30;33.80
42147;DHT22;27815;43.410;11.852;2023-07-16T12:16:06;36.40;33.10
42147;DHT22;27815;43.410;11.852;2023-07-16T12:20:09;36.40;33.20
42147;DHT22;27815;43.410;11.852;2023-07-16T12:24:12;36.50;33.20
42147;DHT22;27815;43.410;11.852;2023-07-16T12:28:15;36.60;33.30
42147;DHT22;27815;43.410;11.852;2023-07-16T12:32:18;36.80;32.80
42147;DHT22;27815;43.410;11.852;2023-07-16T12:36:24;36.80;32.80
42147;DHT22;27815;43.410;11.852;2023-07-16T12:40:29;36.80;32.60
42147;DHT22;27815;43.410;11.852;2023-07-16T12:44:34;36.90;32.90
42147;DHT22;27815;43.410;11.852;2023-07-16T12:48:37;37.00;33.00
42147;DHT22;27815;43.410;11.852;2023-07-16T12:52:44;37.00;33.00
42147;DHT22;27815;43.410;11.852;2023-07-16T12:56:46;37.00;33.00
42147;DHT22;27815;43.410;11.852;2023-07-16T13:00:49;37.00;33.10
42147;DHT22;27815;43.410;11.852;2023-07-16T13:04:54;37.10;33.30
42147;DHT22;27815;43.410;11.852;2023-07-16T13:08:57;37.20;33.60
42147;DHT22;27815;43.410;11.852;2023-07-16T13:13:00;37.40;33.70
42147;DHT22;27815;43.410;11.852;2023-07-16T13:17:05;37.40;33.30
42147;DHT22;27815;43.410;11.852;2023-07-16T13:21:08;37.40;33.20
42147;DHT22;27815;43.410;11.852;2023-07-16T13:25:11;37.40;33.40
42147;DHT22;27815;43.410;11.852;2023-07-16T13:29:14;37.40;33.40
42147;DHT22;27815;43.410;11.852;2023-07-16T13:33:17;37.30;33.30
42147;DHT22;27815;43.410;11.852;2023-07-16T13:37:24;37.30;33.50
42147;DHT22;27815;43.410;11.852;2023-07-16T13:41:27;37.30;33.60
42147;DHT22;27815;43.410;11.852;2023-07-16T13:45:31;37.40;33.60
42147;DHT22;27815;43.410;11.852;2023-07-16T13:49:36;37.40;33.70
42147;DHT22;27815;43.410;11.852;2023-07-16T13:53:39;37.40;33.90
42147;DHT22;27815;43.410;11.852;2023-07-16T13:57:44;37.50;34.10
42147;DHT22;27815;43.410;11.852;2023-07-16T14:01:59;37.60;34.00
42147;DHT22;27815;43.410;11.852;2023-07-16T14:06:03;37.80;33.90
42147;DHT22;27815;43.410;11.852;2023-07-16T14:10:07;37.80;33.70
42147;DHT22;27815;43.410;11.852;2023-07-16T14:14:11;37.60;33.80
42147;DHT22;27815;43.410;11.852;2023-07-16T14:18:14;37.60;34.10
42147;DHT22;27815;43.410;11.852;2023-07-16T14:22:17;37.70;34.20
42147;DHT22;27815;43.410;11.852;2023-07-16T14:26:21;37.70;34.30
42147;DHT22;27815;43.410;11.852;2023-07-16T14:30:24;37.80;34.30
42147;DHT22;27815;43.410;11.852;2023-07-16T14:34:28;37.80;34.50
42147;DHT22;27815;43.410;11.852;2023-07-16T14:38:31;37.80;34.40
42147;DHT22;27815;43.410;11.852;2023-07-16T14:42:34;37.80;34.40
42147;DHT22;27815;43.410;11.852;2023-07-16T14:46:37;37.80;34.50
42147;DHT22;27815;43.410;11.852;2023-07-16T14:50:43;37.90;34.50
42147;DHT22;27815;43.410;11.852;2023-07-16T14:54:47;37.90;34.50
42147;DHT22;27815;43.410;11.852;2023-07-16T14:58:51;37.90;34.50
42147;DHT22;27815;43.410;11.852;2023-07-16T15:02:54;38.00;34.40
42147;DHT22;27815;43.410;11.852;2023-07-16T15:06:56;38.00;34.20
42147;DHT22;27815;43.410;11.852;2023-07-16T15:11:00;38.00;34.00
42147;DHT22;27815;43.410;11.852;2023-07-16T15:15:03;37.90;32.90
42147;DHT22;27815;43.410;11.852;2023-07-16T15:19:09;37.90;33.20
42147;DHT22;27815;43.410;11.852;2023-07-16T15:23:19;38.00;33.20
42147;DHT22;27815;43.410;11.852;2023-07-16T15:27:23;37.90;33.30
42147;DHT22;27815;43.410;11.852;2023-07-16T15:31:26;37.80;33.60
42147;DHT22;27815;43.410;11.852;2023-07-16T15:35:32;37.80;33.60
42147;DHT22;27815;43.410;11.852;2023-07-16T15:39:35;37.80;33.70
42147;DHT22;27815;43.410;11.852;2023-07-16T15:43:38;38.00;33.50
42147;DHT22;27815;43.410;11.852;2023-07-16T15:47:48;38.00;33.40
42147;DHT22;27815;43.410;11.852;2023-07-16T15:51:53;38.20;33.20
42147;DHT22;27815;43.410;11.852;2023-07-16T15:55:56;38.20;33.50
42147;DHT22;27815;43.410;11.852;2023-07-16T15:59:59;38.20;33.60
42147;DHT22;27815;43.410;11.852;2023-07-16T16:04:13;38.50;33.50
42147;DHT22;27815;43.410;11.852;2023-07-16T16:08:18;39.00;32.90
42147;DHT22;27815;43.410;11.852;2023-07-16T16:12:21;39.60;32.30
42147;DHT22;27815;43.410;11.852;2023-07-16T16:16:24;40.00;32.10
42147;DHT22;27815;43.410;11.852;2023-07-16T16:20:27;40.10;31.70
42147;DHT22;27815;43.410;11.852;2023-07-16T16:24:30;39.90;31.70
42147;DHT22;27815;43.410;11.852;2023-07-16T16:28:33;39.50;32.20
42147;DHT22;27815;43.410;11.852;2023-07-16T16:32:37;39.30;32.40
42147;DHT22;27815;43.410;11.852;2023-07-16T16:36:40;39.40;32.10
42147;DHT22;27815;43.410;11.852;2023-07-16T16:40:53;40.00;31.50
42147;DHT22;27815;43.410;11.852;2023-07-16T16:44:57;41.00;30.70
42147;DHT22;27815;43.410;11.852;2023-07-16T16:49:04;41.80;30.00
42147;DHT22;27815;43.410;11.852;2023-07-16T16:53:07;42.30;29.70
42147;DHT22;27815;43.410;11.852;2023-07-16T16:57:11;42.60;29.80
42147;DHT22;27815;43.410;11.852;2023-07-16T17:01:14;42.90;29.50
42147;DHT22;27815;43.410;11.852;2023-07-16T17:05:21;43.20;29.40
42147;DHT22;27815;43.410;11.852;2023-07-16T17:09:29;43.40;29.30
42147;DHT22;27815;43.410;11.852;2023-07-16T17:13:32;43.80;29.20
42147;DHT22;27815;43.410;11.852;2023-07-16T17:17:35;44.00;28.90
42147;DHT22;27815;43.410;11.852;2023-07-16T17:21:39;44.10;29.00
42147;DHT22;27815;43.410;11.852;2023-07-16T17:25:42;44.40;28.90
42147;DHT22;27815;43.410;11.852;2023-07-16T17:29:45;44.50;28.70
42147;DHT22;27815;43.410;11.852;2023-07-16T17:33:51;44.30;28.80
42147;DHT22;27815;43.410;11.852;2023-07-16T17:37:55;44.20;28.90
42147;DHT22;27815;43.410;11.852;2023-07-16T17:41:58;43.40;29.40
42147;DHT22;27815;43.410;11.852;2023-07-16T17:46:01;42.10;30.30
42147;DHT22;27815;43.410;11.852;2023-07-16T17:50:05;41.00;31.10
42147;DHT22;27815;43.410;11.852;2023-07-16T17:54:11;40.30;31.70
42147;DHT22;27815;43.410;11.852;2023-07-16T17:58:15;39.80;32.20
42147;DHT22;27815;43.410;11.852;2023-07-16T18:02:19;39.40;32.40
42147;DHT22;27815;43.410;11.852;2023-07-16T18:06:22;38.60;33.30
42147;DHT22;27815;43.410;11.852;2023-07-16T18:10:25;37.90;34.20
42147;DHT22;27815;43.410;11.852;2023-07-16T18:14:28;37.20;34.90
42147;DHT22;27815;43.410;11.852;2023-07-16T18:18:32;36.70;35.50
42147;DHT22;27815;43.410;11.852;2023-07-16T18:22:37;36.20;36.10
42147;DHT22;27815;43.410;11.852;2023-07-16T18:26:40;35.60;36.90
42147;DHT22;27815;43.410;11.852;2023-07-16T18:30:47;35.10;37.70
42147;DHT22;27815;43.410;11.852;2023-07-16T18:34:50;34.70;38.50
42147;DHT22;27815;43.410;11.852;2023-07-16T18:38:55;34.20;39.30
42147;DHT22;27815;43.410;11.852;2023-07-16T18:42:58;33.90;39.90
42147;DHT22;27815;43.410;11.852;2023-07-16T18:47:06;33.50;40.40
42147;DHT22;27815;43.410;11.852;2023-07-16T18:51:09;33.20;40.90
42147;DHT22;27815;43.410;11.852;2023-07-16T18:55:12;32.90;41.70
42147;DHT22;27815;43.410;11.852;2023-07-16T18:59:15;32.50;42.30
42147;DHT22;27815;43.410;11.852;2023-07-16T19:03:18;32.20;42.60
42147;DHT22;27815;43.410;11.852;2023-07-16T19:07:21;32.10;42.90
42147;DHT22;27815;43.410;11.852;2023-07-16T19:11:24;32.00;42.90
42147;DHT22;27815;43.410;11.852;2023-07-16T19:15:29;31.80;43.20
42147;DHT22;27815;43.410;11.852;2023-07-16T19:19:32;31.70;43.40
42147;DHT22;27815;43.410;11.852;2023-07-16T19:23:35;31.60;43.60
42147;DHT22;27815;43.410;11.852;2023-07-16T19:27:38;31.40;43.90
42147;DHT22;27815;43.410;11.852;2023-07-16T19:31:41;31.10;44.50
42147;DHT22;27815;43.410;11.852;2023-07-16T19:35:44;30.90;44.80
42147;DHT22;27815;43.410;11.852;2023-07-16T19:39:47;30.70;44.90
42147;DHT22;27815;43.410;11.852;2023-07-16T19:43:50;30.60;45.20
42147;DHT22;27815;43.410;11.852;2023-07-16T19:47:53;30.40;45.50
42147;DHT22;27815;43.410;11.852;2023-07-16T19:51:57;30.30;45.70
42147;DHT22;27815;43.410;11.852;2023-07-16T19:56:01;30.00;46.00
42147;DHT22;27815;43.410;11.852;2023-07-16T20:00:05;30.00;46.00
42147;DHT22;27815;43.410;11.852;2023-07-16T20:04:16;29.80;46.00
42147;DHT22;27815;43.410;11.852;2023-07-16T20:08:19;29.80;45.80
42147;DHT22;27815;43.410;11.852;2023-07-16T20:12:22;29.70;45.70
42147;DHT22;27815;43.410;11.852;2023-07-16T20:16:25;29.60;45.50
42147;DHT22;27815;43.410;11.852;2023-07-16T20:20:32;29.50;45.20
42147;DHT22;27815;43.410;11.852;2023-07-16T20:24:35;29.50;45.00
42147;DHT22;27815;43.410;11.852;2023-07-16T20:28:38;29.50;44.90
42147;DHT22;27815;43.410;11.852;2023-07-16T20:32:42;29.40;44.90
42147;DHT22;27815;43.410;11.852;2023-07-16T20:36:44;29.20;44.90
42147;DHT22;27815;43.410;11.852;2023-07-16T20:40:48;29.10;44.90
42147;DHT22;27815;43.410;11.852;2023-07-16T20:49:17;28.80;45.20
42147;DHT22;27815;43.410;11.852;2023-07-16T20:53:20;28.50;45.40
42147;DHT22;27815;43.410;11.852;2023-07-16T20:57:23;28.30;45.70
42147;DHT22;27815;43.410;11.852;2023-07-16T21:01:26;28.20;45.80
42147;DHT22;27815;43.410;11.852;2023-07-16T21:05:30;28.00;45.90
42147;DHT22;27815;43.410;11.852;2023-07-16T21:09:33;28.00;46.00
42147;DHT22;27815;43.410;11.852;2023-07-16T21:13:36;27.80;46.10
42147;DHT22;27815;43.410;11.852;2023-07-16T21:17:39;27.60;46.20
42147;DHT22;27815;43.410;11.852;2023-07-16T21:21:43;27.50;46.30
42147;DHT22;27815;43.410;11.852;2023-07-16T21:25:46;27.40;46.40
42147;DHT22;27815;43.410;11.852;2023-07-16T21:29:54;27.30;46.40
42147;DHT22;27815;43.410;11.852;2023-07-16T21:33:57;27.20;46.50
42147;DHT22;27815;43.410;11.852;2023-07-16T21:38:00;27.10;46.50
42147;DHT22;27815;43.410;11.852;2023-07-16T21:42:04;27.10;46.50
42147;DHT22;27815;43.410;11.852;2023-07-16T21:46:07;27.00;46.60
42147;DHT22;27815;43.410;11.852;2023-07-16T21:50:10;27.00;46.70
42147;DHT22;27815;43.410;11.852;2023-07-16T21:54:13;27.00;46.90
42147;DHT22;27815;43.410;11.852;2023-07-16T21:58:16;26.90;47.00
42147;DHT22;27815;43.410;11.852;2023-07-16T22:02:19;26.90;47.20
42147;DHT22;27815;43.410;11.852;2023-07-16T22:06:21;26.90;47.30
42147;DHT22;27815;43.410;11.852;2023-07-16T22:10:24;26.70;47.50
42147;DHT22;27815;43.410;11.852;2023-07-16T22:14:28;26.60;47.50
42147;DHT22;27815;43.410;11.852;2023-07-16T22:18:31;26.50;47.60
42147;DHT22;27815;43.410;11.852;2023-07-16T22:22:35;26.20;47.70
42147;DHT22;27815;43.410;11.852;2023-07-16T22:26:38;26.10;47.70
42147;DHT22;27815;43.410;11.852;2023-07-16T22:30:40;26.00;47.80
42147;DHT22;27815;43.410;11.852;2023-07-16T22:34:43;26.00;47.70
42147;DHT22;27815;43.410;11.852;2023-07-16T22:38:47;26.00;47.90
42147;DHT22;27815;43.410;11.852;2023-07-16T22:42:49;25.90;48.00
42147;DHT22;27815;43.410;11.852;2023-07-16T22:46:52;25.80;48.00
42147;DHT22;27815;43.410;11.852;2023-07-16T22:50:55;25.80;48.00
42147;DHT22;27815;43.410;11.852;2023-07-16T22:54:59;25.80;48.10
42147;DHT22;27815;43.410;11.852;2023-07-16T22:59:01;25.70;48.20
42147;DHT22;27815;43.410;11.852;2023-07-16T23:03:05;25.60;48.10
42147;DHT22;27815;43.410;11.852;2023-07-16T23:07:08;25.70;48.00
42147;DHT22;27815;43.410;11.852;2023-07-16T23:11:11;25.70;48.00
42147;DHT22;27815;43.410;11.852;2023-07-16T23:15:16;25.60;48.00
42147;DHT22;27815;43.410;11.852;2023-07-16T23:19:18;25.60;48.10
42147;DHT22;27815;43.410;11.852;2023-07-16T23:23:21;25.60;48.10
42147;DHT22;27815;43.410;11.852;2023-07-16T23:27:24;25.50;48.00
42147;DHT22;27815;43.410;11.852;2023-07-16T23:31:28;25.50;48.00
42147;DHT22;27815;43.410;11.852;2023-07-16T23:35:31;25.50;48.10
42147;DHT22;27815;43.410;11.852;2023-07-16T23:39:35;25.30;48.30
42147;DHT22;27815;43.410;11.852;2023-07-16T23:43:37;25.20;48.40
42147;DHT22;27815;43.410;11.852;2023-07-16T23:47:41;25.10;48.50
42147;DHT22;27815;43.410;11.852;2023-07-16T23:51:44;25.00;48.60
42147;DHT22;27815;43.410;11.852;2023-07-16T23:55:47;25.00;48.70
42147;DHT22;27815;43.410;11.852;2023-07-16T23:59:50;25.00;48.90
